sensor_id;sensor_type;location;lat;lon;timestamp;P1;durP1;ratioP1;P2;durP2;ratioP2
54269;SDS011;40181;51.560;13.000;2023-05-10T00:01:23;2.30;;;1.40;;
54269;SDS011;40181;51.560;13.000;2023-05-10T00:03:54;1.92;;;1.15;;
54269;SDS011;40181;51.560;13.000;2023-05-10T00:06:23;1.63;;;1.40;;
54269;SDS011;40181;51.560;13.000;2023-05-10T00:08:53;3.40;;;1.33;;
54269;SDS011;40181;51.560;13.000;2023-05-10T00:11:22;2.13;;;1.60;;
54269;SDS011;40181;51.560;13.000;2023-05-10T00:13:51;1.77;;;1.20;;
54269;SDS011;40181;51.560;13.000;2023-05-10T00:16:20;2.17;;;1.27;;
54269;SDS011;40181;51.560;13.000;2023-05-10T00:18:50;2.83;;;1.50;;
54269;SDS011;40181;51.560;13.000;2023-05-10T00:21:21;2.72;;;1.83;;
54269;SDS011;40181;51.560;13.000;2023-05-10T00:23:50;3.78;;;1.90;;
54269;SDS011;40181;51.560;13.000;2023-05-10T00:26:19;1.38;;;1.15;;
54269;SDS011;40181;51.560;13.000;2023-05-10T00:28:48;2.03;;;1.35;;
54269;SDS011;40181;51.560;13.000;2023-05-10T00:31:17;1.95;;;1.40;;
54269;SDS011;40181;51.560;13.000;2023-05-10T00:33:47;1.70;;;1.45;;
54269;SDS011;40181;51.560;13.000;2023-05-10T00:36:16;1.95;;;1.70;;
54269;SDS011;40181;51.560;13.000;2023-05-10T00:38:48;2.77;;;1.50;;
54269;SDS011;40181;51.560;13.000;2023-05-10T00:41:17;3.20;;;1.58;;
54269;SDS011;40181;51.560;13.000;2023-05-10T00:43:46;2.70;;;1.75;;
54269;SDS011;40181;51.560;13.000;2023-05-10T00:46:17;1.58;;;1.30;;
54269;SDS011;40181;51.560;13.000;2023-05-10T00:48:46;2.50;;;1.50;;
54269;SDS011;40181;51.560;13.000;2023-05-10T00:51:16;2.17;;;1.55;;
54269;SDS011;40181;51.560;13.000;2023-05-10T00:53:48;2.40;;;1.48;;
54269;SDS011;40181;51.560;13.000;2023-05-10T00:56:18;2.85;;;1.50;;
54269;SDS011;40181;51.560;13.000;2023-05-10T00:58:49;2.28;;;1.13;;
54269;SDS011;40181;51.560;13.000;2023-05-10T01:01:18;1.30;;;1.20;;
54269;SDS011;40181;51.560;13.000;2023-05-10T01:03:48;1.90;;;1.48;;
54269;SDS011;40181;51.560;13.000;2023-05-10T01:06:17;2.00;;;1.48;;
54269;SDS011;40181;51.560;13.000;2023-05-10T01:08:49;1.52;;;1.35;;
54269;SDS011;40181;51.560;13.000;2023-05-10T01:11:18;4.15;;;1.70;;
54269;SDS011;40181;51.560;13.000;2023-05-10T01:13:50;2.08;;;1.23;;
54269;SDS011;40181;51.560;13.000;2023-05-10T01:16:24;2.33;;;1.40;;
54269;SDS011;40181;51.560;13.000;2023-05-10T01:18:54;2.22;;;1.60;;
54269;SDS011;40181;51.560;13.000;2023-05-10T01:21:31;2.85;;;1.83;;
54269;SDS011;40181;51.560;13.000;2023-05-10T01:27:53;1.75;;;1.25;;
54269;SDS011;40181;51.560;13.000;2023-05-10T01:30:55;2.53;;;1.45;;
54269;SDS011;40181;51.560;13.000;2023-05-10T01:33:54;1.83;;;1.30;;
54269;SDS011;40181;51.560;13.000;2023-05-10T01:36:30;1.67;;;1.15;;
54269;SDS011;40181;51.560;13.000;2023-05-10T01:39:04;2.03;;;1.33;;
54269;SDS011;40181;51.560;13.000;2023-05-10T01:41:44;2.13;;;1.50;;
54269;SDS011;40181;51.560;13.000;2023-05-10T01:44:20;1.75;;;1.40;;
54269;SDS011;40181;51.560;13.000;2023-05-10T01:47:01;2.22;;;1.70;;
54269;SDS011;40181;51.560;13.000;2023-05-10T01:49:39;3.08;;;1.70;;
54269;SDS011;40181;51.560;13.000;2023-05-10T01:52:14;1.33;;;1.08;;
54269;SDS011;40181;51.560;13.000;2023-05-10T01:54:49;1.67;;;1.05;;
54269;SDS011;40181;51.560;13.000;2023-05-10T01:57:24;2.90;;;1.63;;
54269;SDS011;40181;51.560;13.000;2023-05-10T01:59:59;2.15;;;1.50;;
54269;SDS011;40181;51.560;13.000;2023-05-10T02:02:30;1.17;;;0.98;;
54269;SDS011;40181;51.560;13.000;2023-05-10T02:05:07;4.43;;;1.77;;
54269;SDS011;40181;51.560;13.000;2023-05-10T02:07:37;2.47;;;1.40;;
54269;SDS011;40181;51.560;13.000;2023-05-10T02:10:08;3.17;;;1.55;;
54269;SDS011;40181;51.560;13.000;2023-05-10T02:12:41;1.88;;;1.20;;
54269;SDS011;40181;51.560;13.000;2023-05-10T02:15:14;2.50;;;1.70;;
54269;SDS011;40181;51.560;13.000;2023-05-10T02:17:47;1.65;;;1.40;;
54269;SDS011;40181;51.560;13.000;2023-05-10T02:20:21;1.77;;;1.33;;
54269;SDS011;40181;51.560;13.000;2023-05-10T02:22:52;2.47;;;1.42;;
54269;SDS011;40181;51.560;13.000;2023-05-10T02:25:24;1.52;;;1.25;;
54269;SDS011;40181;51.560;13.000;2023-05-10T02:27:55;3.70;;;1.70;;
54269;SDS011;40181;51.560;13.000;2023-05-10T02:30:25;2.15;;;1.55;;
54269;SDS011;40181;51.560;13.000;2023-05-10T02:32:55;1.63;;;1.30;;
54269;SDS011;40181;51.560;13.000;2023-05-10T02:35:27;1.58;;;1.10;;
54269;SDS011;40181;51.560;13.000;2023-05-10T02:37:58;2.45;;;1.73;;
54269;SDS011;40181;51.560;13.000;2023-05-10T02:40:28;2.13;;;1.63;;
54269;SDS011;40181;51.560;13.000;2023-05-10T02:42:59;2.70;;;1.48;;
54269;SDS011;40181;51.560;13.000;2023-05-10T02:45:31;2.20;;;1.40;;
54269;SDS011;40181;51.560;13.000;2023-05-10T02:48:04;1.55;;;1.25;;
54269;SDS011;40181;51.560;13.000;2023-05-10T02:50:36;1.08;;;0.98;;
54269;SDS011;40181;51.560;13.000;2023-05-10T02:53:10;2.95;;;1.70;;
54269;SDS011;40181;51.560;13.000;2023-05-10T02:55:45;4.03;;;1.98;;
54269;SDS011;40181;51.560;13.000;2023-05-10T02:58:20;1.95;;;1.10;;
54269;SDS011;40181;51.560;13.000;2023-05-10T03:00:50;1.42;;;1.20;;
54269;SDS011;40181;51.560;13.000;2023-05-10T03:03:19;1.42;;;1.15;;
54269;SDS011;40181;51.560;13.000;2023-05-10T03:05:51;1.90;;;1.40;;
54269;SDS011;40181;51.560;13.000;2023-05-10T03:08:21;3.40;;;1.50;;
54269;SDS011;40181;51.560;13.000;2023-05-10T03:10:55;3.40;;;1.40;;
54269;SDS011;40181;51.560;13.000;2023-05-10T03:13:44;1.58;;;1.15;;
54269;SDS011;40181;51.560;13.000;2023-05-10T03:16:25;1.70;;;1.30;;
54269;SDS011;40181;51.560;13.000;2023-05-10T03:19:01;1.58;;;1.23;;
54269;SDS011;40181;51.560;13.000;2023-05-10T03:21:40;2.90;;;1.65;;
54269;SDS011;40181;51.560;13.000;2023-05-10T03:24:15;1.63;;;1.20;;
54269;SDS011;40181;51.560;13.000;2023-05-10T03:26:48;1.77;;;1.50;;
54269;SDS011;40181;51.560;13.000;2023-05-10T03:29:18;3.63;;;1.27;;
54269;SDS011;40181;51.560;13.000;2023-05-10T03:31:48;2.47;;;1.60;;
54269;SDS011;40181;51.560;13.000;2023-05-10T03:34:22;2.13;;;1.50;;
54269;SDS011;40181;51.560;13.000;2023-05-10T03:36:54;1.98;;;1.45;;
54269;SDS011;40181;51.560;13.000;2023-05-10T03:39:23;1.88;;;1.23;;
54269;SDS011;40181;51.560;13.000;2023-05-10T03:41:53;1.52;;;1.42;;
54269;SDS011;40181;51.560;13.000;2023-05-10T03:44:22;2.35;;;1.60;;
54269;SDS011;40181;51.560;13.000;2023-05-10T03:46:51;2.25;;;1.20;;
54269;SDS011;40181;51.560;13.000;2023-05-10T03:49:20;1.30;;;1.10;;
54269;SDS011;40181;51.560;13.000;2023-05-10T03:51:49;1.70;;;1.20;;
54269;SDS011;40181;51.560;13.000;2023-05-10T03:54:20;1.65;;;1.42;;
54269;SDS011;40181;51.560;13.000;2023-05-10T03:56:50;2.25;;;1.40;;
54269;SDS011;40181;51.560;13.000;2023-05-10T03:59:19;1.45;;;1.33;;
54269;SDS011;40181;51.560;13.000;2023-05-10T04:01:48;2.55;;;1.30;;
54269;SDS011;40181;51.560;13.000;2023-05-10T04:04:17;1.35;;;1.25;;
54269;SDS011;40181;51.560;13.000;2023-05-10T04:06:47;2.20;;;1.70;;
54269;SDS011;40181;51.560;13.000;2023-05-10T04:09:16;1.25;;;1.00;;
54269;SDS011;40181;51.560;13.000;2023-05-10T04:11:47;2.75;;;1.60;;
54269;SDS011;40181;51.560;13.000;2023-05-10T04:14:17;1.52;;;1.02;;
54269;SDS011;40181;51.560;13.000;2023-05-10T04:16:46;1.50;;;1.10;;
54269;SDS011;40181;51.560;13.000;2023-05-10T04:19:15;5.38;;;1.73;;
54269;SDS011;40181;51.560;13.000;2023-05-10T04:21:44;1.80;;;1.27;;
54269;SDS011;40181;51.560;13.000;2023-05-10T04:24:13;2.78;;;1.30;;
54269;SDS011;40181;51.560;13.000;2023-05-10T04:26:42;1.27;;;1.08;;
54269;SDS011;40181;51.560;13.000;2023-05-10T04:29:14;1.10;;;0.95;;
54269;SDS011;40181;51.560;13.000;2023-05-10T04:31:43;1.52;;;1.10;;
54269;SDS011;40181;51.560;13.000;2023-05-10T04:34:13;1.70;;;1.30;;
54269;SDS011;40181;51.560;13.000;2023-05-10T04:36:43;2.20;;;1.20;;
54269;SDS011;40181;51.560;13.000;2023-05-10T04:39:12;2.22;;;1.42;;
54269;SDS011;40181;51.560;13.000;2023-05-10T04:41:41;1.92;;;1.20;;
54269;SDS011;40181;51.560;13.000;2023-05-10T04:44:10;1.75;;;1.55;;
54269;SDS011;40181;51.560;13.000;2023-05-10T04:46:42;2.05;;;1.08;;
54269;SDS011;40181;51.560;13.000;2023-05-10T04:49:11;1.83;;;1.60;;
54269;SDS011;40181;51.560;13.000;2023-05-10T04:51:40;1.33;;;1.20;;
54269;SDS011;40181;51.560;13.000;2023-05-10T04:54:09;2.17;;;1.27;;
54269;SDS011;40181;51.560;13.000;2023-05-10T04:56:38;2.30;;;1.75;;
54269;SDS011;40181;51.560;13.000;2023-05-10T04:59:07;2.45;;;1.38;;
54269;SDS011;40181;51.560;13.000;2023-05-10T05:01:39;1.83;;;1.30;;
54269;SDS011;40181;51.560;13.000;2023-05-10T05:04:08;1.10;;;0.95;;
54269;SDS011;40181;51.560;13.000;2023-05-10T05:06:37;3.00;;;1.60;;
54269;SDS011;40181;51.560;13.000;2023-05-10T05:09:06;1.58;;;1.23;;
54269;SDS011;40181;51.560;13.000;2023-05-10T05:11:35;1.45;;;1.10;;
54269;SDS011;40181;51.560;13.000;2023-05-10T05:14:05;1.95;;;1.27;;
54269;SDS011;40181;51.560;13.000;2023-05-10T05:16:34;1.75;;;1.27;;
54269;SDS011;40181;51.560;13.000;2023-05-10T05:19:06;1.60;;;1.20;;
54269;SDS011;40181;51.560;13.000;2023-05-10T05:21:35;1.48;;;1.30;;
54269;SDS011;40181;51.560;13.000;2023-05-10T05:24:04;7.45;;;1.80;;
54269;SDS011;40181;51.560;13.000;2023-05-10T05:26:35;3.10;;;1.30;;
54269;SDS011;40181;51.560;13.000;2023-05-10T05:29:04;1.70;;;1.50;;
54269;SDS011;40181;51.560;13.000;2023-05-10T05:31:33;11.23;;;1.50;;
54269;SDS011;40181;51.560;13.000;2023-05-10T05:34:02;3.22;;;1.50;;
54269;SDS011;40181;51.560;13.000;2023-05-10T05:36:35;1.38;;;1.20;;
54269;SDS011;40181;51.560;13.000;2023-05-10T05:39:06;0.80;;;0.75;;
54269;SDS011;40181;51.560;13.000;2023-05-10T05:41:35;1.92;;;1.27;;
54269;SDS011;40181;51.560;13.000;2023-05-10T05:44:04;3.00;;;1.67;;
54269;SDS011;40181;51.560;13.000;2023-05-10T05:46:33;2.35;;;1.30;;
54269;SDS011;40181;51.560;13.000;2023-05-10T05:49:03;1.95;;;1.65;;
54269;SDS011;40181;51.560;13.000;2023-05-10T05:51:34;1.02;;;0.85;;
54269;SDS011;40181;51.560;13.000;2023-05-10T05:54:04;2.38;;;1.33;;
54269;SDS011;40181;51.560;13.000;2023-05-10T05:56:33;2.75;;;1.70;;
54269;SDS011;40181;51.560;13.000;2023-05-10T05:59:02;2.17;;;1.38;;
54269;SDS011;40181;51.560;13.000;2023-05-10T06:01:32;1.33;;;1.05;;
54269;SDS011;40181;51.560;13.000;2023-05-10T06:04:01;2.90;;;1.55;;
54269;SDS011;40181;51.560;13.000;2023-05-10T06:06:32;2.28;;;1.33;;
54269;SDS011;40181;51.560;13.000;2023-05-10T06:09:01;0.75;;;0.73;;
54269;SDS011;40181;51.560;13.000;2023-05-10T06:11:31;1.75;;;1.17;;
54269;SDS011;40181;51.560;13.000;2023-05-10T06:14:00;2.55;;;1.60;;
54269;SDS011;40181;51.560;13.000;2023-05-10T06:16:29;2.53;;;1.73;;
54269;SDS011;40181;51.560;13.000;2023-05-10T06:19:01;3.28;;;1.58;;
54269;SDS011;40181;51.560;13.000;2023-05-10T06:21:33;2.28;;;1.60;;
54269;SDS011;40181;51.560;13.000;2023-05-10T06:24:02;1.15;;;1.00;;
54269;SDS011;40181;51.560;13.000;2023-05-10T06:26:33;1.98;;;1.20;;
54269;SDS011;40181;51.560;13.000;2023-05-10T06:29:02;5.80;;;1.25;;
54269;SDS011;40181;51.560;13.000;2023-05-10T06:31:31;7.90;;;1.50;;
54269;SDS011;40181;51.560;13.000;2023-05-10T06:34:00;2.75;;;2.05;;
54269;SDS011;40181;51.560;13.000;2023-05-10T06:36:29;1.73;;;1.27;;
54269;SDS011;40181;51.560;13.000;2023-05-10T06:39:01;3.35;;;1.02;;
54269;SDS011;40181;51.560;13.000;2023-05-10T06:41:30;2.00;;;1.30;;
54269;SDS011;40181;51.560;13.000;2023-05-10T06:43:59;2.95;;;1.40;;
54269;SDS011;40181;51.560;13.000;2023-05-10T06:46:28;1.52;;;1.20;;
54269;SDS011;40181;51.560;13.000;2023-05-10T06:48:58;0.90;;;0.80;;
54269;SDS011;40181;51.560;13.000;2023-05-10T06:51:27;1.55;;;1.10;;
54269;SDS011;40181;51.560;13.000;2023-05-10T06:53:58;2.08;;;1.27;;
54269;SDS011;40181;51.560;13.000;2023-05-10T06:56:28;2.17;;;1.27;;
54269;SDS011;40181;51.560;13.000;2023-05-10T06:58:57;1.48;;;1.10;;
54269;SDS011;40181;51.560;13.000;2023-05-10T07:01:26;1.70;;;1.15;;
54269;SDS011;40181;51.560;13.000;2023-05-10T07:03:55;4.40;;;1.38;;
54269;SDS011;40181;51.560;13.000;2023-05-10T07:06:24;2.30;;;1.27;;
54269;SDS011;40181;51.560;13.000;2023-05-10T07:08:54;8.48;;;1.70;;
54269;SDS011;40181;51.560;13.000;2023-05-10T07:11:25;1.88;;;1.25;;
54269;SDS011;40181;51.560;13.000;2023-05-10T07:13:54;2.15;;;1.27;;
54269;SDS011;40181;51.560;13.000;2023-05-10T07:16:24;2.17;;;1.67;;
54269;SDS011;40181;51.560;13.000;2023-05-10T07:18:53;1.52;;;1.10;;
54269;SDS011;40181;51.560;13.000;2023-05-10T07:21:22;2.60;;;1.50;;
54269;SDS011;40181;51.560;13.000;2023-05-10T07:23:53;1.13;;;0.90;;
54269;SDS011;40181;51.560;13.000;2023-05-10T07:26:22;0.80;;;0.70;;
54269;SDS011;40181;51.560;13.000;2023-05-10T07:28:54;2.33;;;1.35;;
54269;SDS011;40181;51.560;13.000;2023-05-10T07:31:23;1.77;;;1.23;;
54269;SDS011;40181;51.560;13.000;2023-05-10T07:33:52;4.25;;;1.80;;
54269;SDS011;40181;51.560;13.000;2023-05-10T07:36:21;2.17;;;1.30;;
54269;SDS011;40181;51.560;13.000;2023-05-10T07:38:51;1.52;;;1.10;;
54269;SDS011;40181;51.560;13.000;2023-05-10T07:41:21;2.28;;;1.42;;
54269;SDS011;40181;51.560;13.000;2023-05-10T07:43:53;4.18;;;1.23;;
54269;SDS011;40181;51.560;13.000;2023-05-10T07:46:22;6.82;;;1.67;;
54269;SDS011;40181;51.560;13.000;2023-05-10T07:48:51;2.42;;;1.35;;
54269;SDS011;40181;51.560;13.000;2023-05-10T07:51:20;1.33;;;1.20;;
54269;SDS011;40181;51.560;13.000;2023-05-10T07:53:49;1.00;;;0.90;;
54269;SDS011;40181;51.560;13.000;2023-05-10T07:56:23;5.20;;;2.20;;
54269;SDS011;40181;51.560;13.000;2023-05-10T07:58:57;1.88;;;1.27;;
54269;SDS011;40181;51.560;13.000;2023-05-10T08:01:29;3.50;;;1.52;;
54269;SDS011;40181;51.560;13.000;2023-05-10T08:03:59;1.85;;;1.30;;
54269;SDS011;40181;51.560;13.000;2023-05-10T08:06:29;3.50;;;1.30;;
54269;SDS011;40181;51.560;13.000;2023-05-10T08:08:58;2.10;;;1.17;;
54269;SDS011;40181;51.560;13.000;2023-05-10T08:11:27;3.45;;;1.00;;
54269;SDS011;40181;51.560;13.000;2023-05-10T08:13:59;3.17;;;1.33;;
54269;SDS011;40181;51.560;13.000;2023-05-10T08:16:28;2.65;;;1.30;;
54269;SDS011;40181;51.560;13.000;2023-05-10T08:18:57;3.35;;;2.22;;
54269;SDS011;40181;51.560;13.000;2023-05-10T08:21:26;4.07;;;2.72;;
54269;SDS011;40181;51.560;13.000;2023-05-10T08:23:56;3.28;;;2.13;;
54269;SDS011;40181;51.560;13.000;2023-05-10T08:26:25;2.28;;;1.58;;
54269;SDS011;40181;51.560;13.000;2023-05-10T08:28:54;2.47;;;1.73;;
54269;SDS011;40181;51.560;13.000;2023-05-10T08:31:26;1.65;;;1.48;;
54269;SDS011;40181;51.560;13.000;2023-05-10T08:33:55;15.77;;;2.65;;
54269;SDS011;40181;51.560;13.000;2023-05-10T08:36:24;5.10;;;2.70;;
54269;SDS011;40181;51.560;13.000;2023-05-10T08:38:53;8.00;;;5.95;;
54269;SDS011;40181;51.560;13.000;2023-05-10T08:41:23;8.82;;;4.68;;
54269;SDS011;40181;51.560;13.000;2023-05-10T08:43:53;5.47;;;4.13;;
54269;SDS011;40181;51.560;13.000;2023-05-10T08:46:25;6.45;;;4.20;;
54269;SDS011;40181;51.560;13.000;2023-05-10T08:48:56;15.25;;;8.68;;
54269;SDS011;40181;51.560;13.000;2023-05-10T08:51:29;10.32;;;5.30;;
54269;SDS011;40181;51.560;13.000;2023-05-10T08:54:04;4.00;;;2.63;;
54269;SDS011;40181;51.560;13.000;2023-05-10T08:56:34;2.95;;;1.75;;
54269;SDS011;40181;51.560;13.000;2023-05-10T08:59:04;5.10;;;2.45;;
54269;SDS011;40181;51.560;13.000;2023-05-10T09:01:36;2.40;;;1.70;;
54269;SDS011;40181;51.560;13.000;2023-05-10T09:04:05;2.63;;;1.77;;
54269;SDS011;40181;51.560;13.000;2023-05-10T09:06:34;2.97;;;2.05;;
54269;SDS011;40181;51.560;13.000;2023-05-10T09:09:04;3.30;;;1.48;;
54269;SDS011;40181;51.560;13.000;2023-05-10T09:11:33;2.35;;;1.42;;
54269;SDS011;40181;51.560;13.000;2023-05-10T09:14:03;1.85;;;1.30;;
54269;SDS011;40181;51.560;13.000;2023-05-10T09:16:32;1.88;;;1.05;;
54269;SDS011;40181;51.560;13.000;2023-05-10T09:19:04;3.83;;;1.40;;
54269;SDS011;40181;51.560;13.000;2023-05-10T09:21:34;2.13;;;1.35;;
54269;SDS011;40181;51.560;13.000;2023-05-10T09:24:05;2.22;;;1.55;;
54269;SDS011;40181;51.560;13.000;2023-05-10T09:26:42;2.03;;;1.70;;
54269;SDS011;40181;51.560;13.000;2023-05-10T09:29:15;1.88;;;1.33;;
54269;SDS011;40181;51.560;13.000;2023-05-10T09:31:48;9.95;;;1.50;;
54269;SDS011;40181;51.560;13.000;2023-05-10T09:34:20;2.10;;;1.23;;
54269;SDS011;40181;51.560;13.000;2023-05-10T09:36:59;2.20;;;1.63;;
54269;SDS011;40181;51.560;13.000;2023-05-10T09:39:32;6.82;;;2.08;;
54269;SDS011;40181;51.560;13.000;2023-05-10T09:42:04;2.35;;;1.55;;
54269;SDS011;40181;51.560;13.000;2023-05-10T09:44:35;5.00;;;2.58;;
54269;SDS011;40181;51.560;13.000;2023-05-10T09:47:08;3.58;;;2.25;;
54269;SDS011;40181;51.560;13.000;2023-05-10T09:49:37;3.42;;;2.03;;
54269;SDS011;40181;51.560;13.000;2023-05-10T09:52:07;1.75;;;1.27;;
54269;SDS011;40181;51.560;13.000;2023-05-10T09:54:36;5.93;;;2.10;;
54269;SDS011;40181;51.560;13.000;2023-05-10T09:57:05;4.85;;;1.48;;
54269;SDS011;40181;51.560;13.000;2023-05-10T09:59:49;2.05;;;1.35;;
54269;SDS011;40181;51.560;13.000;2023-05-10T10:02:21;4.00;;;1.92;;
54269;SDS011;40181;51.560;13.000;2023-05-10T10:04:56;1.83;;;1.63;;
54269;SDS011;40181;51.560;13.000;2023-05-10T10:07:26;3.08;;;1.35;;
54269;SDS011;40181;51.560;13.000;2023-05-10T10:09:55;1.42;;;1.20;;
54269;SDS011;40181;51.560;13.000;2023-05-10T10:12:24;1.70;;;1.15;;
54269;SDS011;40181;51.560;13.000;2023-05-10T10:14:54;2.40;;;1.67;;
54269;SDS011;40181;51.560;13.000;2023-05-10T10:17:27;1.58;;;1.20;;
54269;SDS011;40181;51.560;13.000;2023-05-10T10:19:56;3.13;;;1.77;;
54269;SDS011;40181;51.560;13.000;2023-05-10T10:22:26;2.80;;;1.40;;
54269;SDS011;40181;51.560;13.000;2023-05-10T10:24:55;2.88;;;1.95;;
54269;SDS011;40181;51.560;13.000;2023-05-10T10:27:26;3.72;;;1.83;;
54269;SDS011;40181;51.560;13.000;2023-05-10T10:30:08;3.45;;;1.77;;
54269;SDS011;40181;51.560;13.000;2023-05-10T10:32:54;2.40;;;1.98;;
54269;SDS011;40181;51.560;13.000;2023-05-10T10:35:50;4.55;;;2.33;;
54269;SDS011;40181;51.560;13.000;2023-05-10T10:38:21;2.33;;;1.45;;
54269;SDS011;40181;51.560;13.000;2023-05-10T10:40:55;5.93;;;1.65;;
54269;SDS011;40181;51.560;13.000;2023-05-10T10:43:33;1.33;;;1.23;;
54269;SDS011;40181;51.560;13.000;2023-05-10T10:46:12;2.95;;;1.95;;
54269;SDS011;40181;51.560;13.000;2023-05-10T10:48:49;2.22;;;1.73;;
54269;SDS011;40181;51.560;13.000;2023-05-10T10:51:37;3.10;;;1.98;;
54269;SDS011;40181;51.560;13.000;2023-05-10T10:54:09;1.92;;;1.40;;
54269;SDS011;40181;51.560;13.000;2023-05-10T10:56:38;1.92;;;1.73;;
54269;SDS011;40181;51.560;13.000;2023-05-10T10:59:08;3.53;;;2.13;;
54269;SDS011;40181;51.560;13.000;2023-05-10T11:01:37;2.30;;;2.08;;
54269;SDS011;40181;51.560;13.000;2023-05-10T11:04:18;1.52;;;1.40;;
54269;SDS011;40181;51.560;13.000;2023-05-10T11:06:48;2.47;;;1.42;;
54269;SDS011;40181;51.560;13.000;2023-05-10T11:09:17;7.10;;;2.58;;
54269;SDS011;40181;51.560;13.000;2023-05-10T11:11:50;1.48;;;1.30;;
54269;SDS011;40181;51.560;13.000;2023-05-10T11:14:23;8.80;;;2.47;;
54269;SDS011;40181;51.560;13.000;2023-05-10T11:16:52;3.58;;;1.55;;
54269;SDS011;40181;51.560;13.000;2023-05-10T11:19:24;2.75;;;1.50;;
54269;SDS011;40181;51.560;13.000;2023-05-10T11:24:49;1.40;;;1.05;;
54269;SDS011;40181;51.560;13.000;2023-05-10T11:27:25;2.35;;;1.48;;
54269;SDS011;40181;51.560;13.000;2023-05-10T11:29:55;1.63;;;1.17;;
54269;SDS011;40181;51.560;13.000;2023-05-10T11:32:24;3.50;;;1.80;;
54269;SDS011;40181;51.560;13.000;2023-05-10T11:34:55;2.17;;;1.65;;
54269;SDS011;40181;51.560;13.000;2023-05-10T11:37:27;1.67;;;1.27;;
54269;SDS011;40181;51.560;13.000;2023-05-10T11:39:59;0.77;;;0.75;;
54269;SDS011;40181;51.560;13.000;2023-05-10T11:42:28;2.28;;;1.38;;
54269;SDS011;40181;51.560;13.000;2023-05-10T11:44:59;2.15;;;1.30;;
54269;SDS011;40181;51.560;13.000;2023-05-10T11:50:00;4.47;;;1.92;;
54269;SDS011;40181;51.560;13.000;2023-05-10T11:52:35;3.08;;;2.45;;
54269;SDS011;40181;51.560;13.000;2023-05-10T11:55:05;4.15;;;1.65;;
54269;SDS011;40181;51.560;13.000;2023-05-10T11:57:35;2.35;;;1.55;;
54269;SDS011;40181;51.560;13.000;2023-05-10T12:00:07;1.90;;;1.60;;
54269;SDS011;40181;51.560;13.000;2023-05-10T12:02:37;2.58;;;1.63;;
54269;SDS011;40181;51.560;13.000;2023-05-10T12:05:10;4.13;;;2.23;;
54269;SDS011;40181;51.560;13.000;2023-05-10T12:07:39;3.13;;;2.30;;
54269;SDS011;40181;51.560;13.000;2023-05-10T12:10:10;1.70;;;1.17;;
54269;SDS011;40181;51.560;13.000;2023-05-10T12:12:43;4.07;;;2.85;;
54269;SDS011;40181;51.560;13.000;2023-05-10T12:15:16;3.90;;;2.47;;
54269;SDS011;40181;51.560;13.000;2023-05-10T12:17:48;2.17;;;1.65;;
54269;SDS011;40181;51.560;13.000;2023-05-10T12:20:21;3.30;;;2.47;;
54269;SDS011;40181;51.560;13.000;2023-05-10T12:22:56;2.28;;;1.63;;
54269;SDS011;40181;51.560;13.000;2023-05-10T12:25:29;9.18;;;1.85;;
54269;SDS011;40181;51.560;13.000;2023-05-10T12:28:02;1.95;;;1.45;;
54269;SDS011;40181;51.560;13.000;2023-05-10T12:30:34;3.17;;;1.85;;
54269;SDS011;40181;51.560;13.000;2023-05-10T12:33:07;1.75;;;1.40;;
54269;SDS011;40181;51.560;13.000;2023-05-10T12:35:48;4.63;;;2.30;;
54269;SDS011;40181;51.560;13.000;2023-05-10T12:38:24;12.40;;;2.60;;
54269;SDS011;40181;51.560;13.000;2023-05-10T12:40:58;3.03;;;1.90;;
54269;SDS011;40181;51.560;13.000;2023-05-10T12:43:28;2.80;;;1.90;;
54269;SDS011;40181;51.560;13.000;2023-05-10T12:45:58;2.42;;;1.40;;
54269;SDS011;40181;51.560;13.000;2023-05-10T12:48:33;1.80;;;1.15;;
54269;SDS011;40181;51.560;13.000;2023-05-10T12:51:05;2.25;;;1.58;;
54269;SDS011;40181;51.560;13.000;2023-05-10T12:53:37;3.28;;;1.55;;
54269;SDS011;40181;51.560;13.000;2023-05-10T12:56:07;1.88;;;1.40;;
54269;SDS011;40181;51.560;13.000;2023-05-10T12:58:37;2.65;;;1.55;;
54269;SDS011;40181;51.560;13.000;2023-05-10T13:01:06;1.75;;;1.17;;
54269;SDS011;40181;51.560;13.000;2023-05-10T13:03:35;1.95;;;1.13;;
54269;SDS011;40181;51.560;13.000;2023-05-10T13:06:07;3.33;;;1.58;;
54269;SDS011;40181;51.560;13.000;2023-05-10T13:08:38;1.67;;;1.15;;
54269;SDS011;40181;51.560;13.000;2023-05-10T13:11:07;1.75;;;0.93;;
54269;SDS011;40181;51.560;13.000;2023-05-10T13:13:36;4.40;;;1.15;;
54269;SDS011;40181;51.560;13.000;2023-05-10T13:16:06;2.60;;;1.17;;
54269;SDS011;40181;51.560;13.000;2023-05-10T13:18:35;1.15;;;0.95;;
54269;SDS011;40181;51.560;13.000;2023-05-10T13:21:06;1.38;;;0.90;;
54269;SDS011;40181;51.560;13.000;2023-05-10T13:23:36;1.13;;;0.98;;
54269;SDS011;40181;51.560;13.000;2023-05-10T13:26:05;2.20;;;1.40;;
54269;SDS011;40181;51.560;13.000;2023-05-10T13:28:34;7.97;;;1.60;;
54269;SDS011;40181;51.560;13.000;2023-05-10T13:31:03;3.10;;;1.63;;
54269;SDS011;40181;51.560;13.000;2023-05-10T13:33:33;1.40;;;1.10;;
54269;SDS011;40181;51.560;13.000;2023-05-10T13:36:02;2.60;;;1.25;;
54269;SDS011;40181;51.560;13.000;2023-05-10T13:38:34;2.03;;;1.17;;
54269;SDS011;40181;51.560;13.000;2023-05-10T13:41:03;2.20;;;1.27;;
54269;SDS011;40181;51.560;13.000;2023-05-10T13:43:32;1.35;;;1.05;;
54269;SDS011;40181;51.560;13.000;2023-05-10T13:46:01;1.08;;;0.98;;
54269;SDS011;40181;51.560;13.000;2023-05-10T13:48:31;2.28;;;1.45;;
54269;SDS011;40181;51.560;13.000;2023-05-10T13:53:30;2.13;;;1.38;;
54269;SDS011;40181;51.560;13.000;2023-05-10T13:56:02;1.73;;;1.42;;
54269;SDS011;40181;51.560;13.000;2023-05-10T13:58:32;2.20;;;1.55;;
54269;SDS011;40181;51.560;13.000;2023-05-10T14:01:01;1.05;;;0.90;;
54269;SDS011;40181;51.560;13.000;2023-05-10T14:03:30;1.08;;;0.93;;
54269;SDS011;40181;51.560;13.000;2023-05-10T14:06:00;0.93;;;0.90;;
54269;SDS011;40181;51.560;13.000;2023-05-10T14:08:29;1.27;;;0.80;;
54269;SDS011;40181;51.560;13.000;2023-05-10T14:11:03;0.75;;;0.75;;
54269;SDS011;40181;51.560;13.000;2023-05-10T14:13:32;2.47;;;1.50;;
54269;SDS011;40181;51.560;13.000;2023-05-10T14:16:01;2.28;;;0.80;;
54269;SDS011;40181;51.560;13.000;2023-05-10T14:18:30;2.10;;;1.10;;
54269;SDS011;40181;51.560;13.000;2023-05-10T14:21:00;1.77;;;1.00;;
54269;SDS011;40181;51.560;13.000;2023-05-10T14:23:30;1.05;;;0.75;;
54269;SDS011;40181;51.560;13.000;2023-05-10T14:25:59;1.38;;;1.02;;
54269;SDS011;40181;51.560;13.000;2023-05-10T14:28:31;0.93;;;0.82;;
54269;SDS011;40181;51.560;13.000;2023-05-10T14:31:00;1.60;;;0.70;;
54269;SDS011;40181;51.560;13.000;2023-05-10T14:33:30;1.23;;;0.80;;
54269;SDS011;40181;51.560;13.000;2023-05-10T14:35:59;3.67;;;1.05;;
54269;SDS011;40181;51.560;13.000;2023-05-10T14:38:29;0.95;;;0.82;;
54269;SDS011;40181;51.560;13.000;2023-05-10T14:40:58;1.35;;;0.95;;
54269;SDS011;40181;51.560;13.000;2023-05-10T14:43:29;0.93;;;0.70;;
54269;SDS011;40181;51.560;13.000;2023-05-10T14:45:59;1.40;;;0.85;;
54269;SDS011;40181;51.560;13.000;2023-05-10T14:48:28;0.88;;;0.65;;
54269;SDS011;40181;51.560;13.000;2023-05-10T14:50:57;2.75;;;0.80;;
54269;SDS011;40181;51.560;13.000;2023-05-10T14:53:27;2.40;;;1.40;;
54269;SDS011;40181;51.560;13.000;2023-05-10T14:55:57;0.88;;;0.63;;
54269;SDS011;40181;51.560;13.000;2023-05-10T14:58:30;0.55;;;0.45;;
54269;SDS011;40181;51.560;13.000;2023-05-10T15:00:59;1.75;;;0.80;;
54269;SDS011;40181;51.560;13.000;2023-05-10T15:03:28;0.95;;;0.70;;
54269;SDS011;40181;51.560;13.000;2023-05-10T15:05:57;0.82;;;0.55;;
54269;SDS011;40181;51.560;13.000;2023-05-10T15:08:26;0.98;;;0.88;;